sensor_id;sensor_type;location;lat;lon;timestamp;temperature;humidity
11540;DHT22;5826;54.756;9.192;2022-09-28T00:00:21;8.70;99.90
11540;DHT22;5826;54.756;9.192;2022-09-28T00:02:46;8.70;99.90
11540;DHT22;5826;54.756;9.192;2022-09-28T00:05:12;8.70;99.90
11540;DHT22;5826;54.756;9.192;2022-09-28T00:07:38;8.70;99.90
11540;DHT22;5826;54.756;9.192;2022-09-28T00:10:04;8.70;99.90
11540;DHT22;5826;54.756;9.192;2022-09-28T00:12:30;8.70;99.90
11540;DHT22;5826;54.756;9.192;2022-09-28T00:14:55;8.70;99.90
11540;DHT22;5826;54.756;9.192;2022-09-28T00:17:21;8.70;99.90
11540;DHT22;5826;54.756;9.192;2022-09-28T00:19:48;8.70;99.90
11540;DHT22;5826;54.756;9.192;2022-09-28T00:22:14;8.70;99.90
11540;DHT22;5826;54.756;9.192;2022-09-28T00:24:39;8.70;99.90
11540;DHT22;5826;54.756;9.192;2022-09-28T00:27:05;8.70;99.90
11540;DHT22;5826;54.756;9.192;2022-09-28T00:29:33;8.70;99.90
11540;DHT22;5826;54.756;9.192;2022-09-28T00:32:09;8.70;99.90
11540;DHT22;5826;54.756;9.192;2022-09-28T00:34:37;8.70;99.90
11540;DHT22;5826;54.756;9.192;2022-09-28T00:37:05;8.70;99.90
11540;DHT22;5826;54.756;9.192;2022-09-28T00:39:30;8.70;99.90
11540;DHT22;5826;54.756;9.192;2022-09-28T00:41:57;8.70;99.90
11540;DHT22;5826;54.756;9.192;2022-09-28T00:46:57;8.70;99.90
11540;DHT22;5826;54.756;9.192;2022-09-28T00:49:33;8.70;99.90
11540;DHT22;5826;54.756;9.192;2022-09-28T00:51:59;8.80;99.90
11540;DHT22;5826;54.756;9.192;2022-09-28T00:54:26;8.80;99.90
11540;DHT22;5826;54.756;9.192;2022-09-28T00:56:51;8.80;99.90
11540;DHT22;5826;54.756;9.192;2022-09-28T00:59:17;8.80;99.90
11540;DHT22;5826;54.756;9.192;2022-09-28T01:01:42;8.80;99.90
11540;DHT22;5826;54.756;9.192;2022-09-28T01:04:08;8.80;99.90
11540;DHT22;5826;54.756;9.192;2022-09-28T01:06:35;8.80;99.90
11540;DHT22;5826;54.756;9.192;2022-09-28T01:09:06;8.80;99.90
11540;DHT22;5826;54.756;9.192;2022-09-28T01:11:34;8.80;99.90
11540;DHT22;5826;54.756;9.192;2022-09-28T01:14:01;8.80;99.90
11540;DHT22;5826;54.756;9.192;2022-09-28T01:24:38;8.80;99.90
11540;DHT22;5826;54.756;9.192;2022-09-28T01:30:13;8.80;99.90
11540;DHT22;5826;54.756;9.192;2022-09-28T01:35:12;8.80;99.90
11540;DHT22;5826;54.756;9.192;2022-09-28T01:40:14;8.80;99.90
11540;DHT22;5826;54.756;9.192;2022-09-28T01:42:43;8.80;99.90
11540;DHT22;5826;54.756;9.192;2022-09-28T01:45:26;8.80;99.90
11540;DHT22;5826;54.756;9.192;2022-09-28T01:47:59;8.80;99.90
11540;DHT22;5826;54.756;9.192;2022-09-28T01:50:28;8.80;99.90
11540;DHT22;5826;54.756;9.192;2022-09-28T01:53:03;8.80;99.90
11540;DHT22;5826;54.756;9.192;2022-09-28T01:55:35;8.80;99.90
11540;DHT22;5826;54.756;9.192;2022-09-28T01:58:10;8.80;99.90
11540;DHT22;5826;54.756;9.192;2022-09-28T02:00:40;8.80;99.90
11540;DHT22;5826;54.756;9.192;2022-09-28T02:03:14;8.80;99.90
11540;DHT22;5826;54.756;9.192;2022-09-28T02:05:48;8.80;99.90
11540;DHT22;5826;54.756;9.192;2022-09-28T02:08:22;8.80;99.90
11540;DHT22;5826;54.756;9.192;2022-09-28T02:10:56;8.80;99.90
11540;DHT22;5826;54.756;9.192;2022-09-28T02:13:29;8.80;99.90
11540;DHT22;5826;54.756;9.192;2022-09-28T02:16:09;8.80;99.90
11540;DHT22;5826;54.756;9.192;2022-09-28T02:18:38;8.80;99.90
11540;DHT22;5826;54.756;9.192;2022-09-28T02:21:25;8.80;99.90
11540;DHT22;5826;54.756;9.192;2022-09-28T02:23:56;8.80;99.90
11540;DHT22;5826;54.756;9.192;2022-09-28T02:26:28;8.80;99.90
11540;DHT22;5826;54.756;9.192;2022-09-28T02:28:55;8.80;99.90
11540;DHT22;5826;54.756;9.192;2022-09-28T02:31:20;8.80;99.90
11540;DHT22;5826;54.756;9.192;2022-09-28T02:33:46;8.80;99.90
11540;DHT22;5826;54.756;9.192;2022-09-28T02:36:15;8.80;99.90
11540;DHT22;5826;54.756;9.192;2022-09-28T02:38:41;8.80;99.90
11540;DHT22;5826;54.756;9.192;2022-09-28T02:41:40;8.80;99.90
11540;DHT22;5826;54.756;9.192;2022-09-28T02:44:26;8.80;99.90
11540;DHT22;5826;54.756;9.192;2022-09-28T02:49:49;8.80;99.90
11540;DHT22;5826;54.756;9.192;2022-09-28T02:52:24;8.80;99.90
11540;DHT22;5826;54.756;9.192;2022-09-28T02:58:17;8.90;99.90
11540;DHT22;5826;54.756;9.192;2022-09-28T03:01:04;8.90;99.90
11540;DHT22;5826;54.756;9.192;2022-09-28T03:03:47;8.90;99.90
11540;DHT22;5826;54.756;9.192;2022-09-28T03:06:36;8.90;99.90
11540;DHT22;5826;54.756;9.192;2022-09-28T03:09:53;8.90;99.90
11540;DHT22;5826;54.756;9.192;2022-09-28T03:12:05;8.90;99.90
11540;DHT22;5826;54.756;9.192;2022-09-28T03:14:31;8.90;99.90
11540;DHT22;5826;54.756;9.192;2022-09-28T03:16:57;8.80;99.90
11540;DHT22;5826;54.756;9.192;2022-09-28T03:19:26;8.80;99.90
11540;DHT22;5826;54.756;9.192;2022-09-28T03:21:53;8.90;99.90
11540;DHT22;5826;54.756;9.192;2022-09-28T03:24:20;8.90;99.90
11540;DHT22;5826;54.756;9.192;2022-09-28T03:26:45;8.80;99.90
11540;DHT22;5826;54.756;9.192;2022-09-28T03:29:11;8.90;99.90
11540;DHT22;5826;54.756;9.192;2022-09-28T03:31:36;8.90;99.90
11540;DHT22;5826;54.756;9.192;2022-09-28T03:34:02;8.90;99.90
11540;DHT22;5826;54.756;9.192;2022-09-28T03:36:27;8.90;99.90
11540;DHT22;5826;54.756;9.192;2022-09-28T03:38:53;8.90;99.90
11540;DHT22;5826;54.756;9.192;2022-09-28T03:41:25;8.90;99.90
11540;DHT22;5826;54.756;9.192;2022-09-28T03:43:52;8.90;99.90
11540;DHT22;5826;54.756;9.192;2022-09-28T03:46:18;8.90;99.90
11540;DHT22;5826;54.756;9.192;2022-09-28T03:48:43;8.80;99.90
11540;DHT22;5826;54.756;9.192;2022-09-28T03:51:10;8.80;99.90
11540;DHT22;5826;54.756;9.192;2022-09-28T03:53:36;8.80;99.90
11540;DHT22;5826;54.756;9.192;2022-09-28T03:56:04;8.80;99.90
11540;DHT22;5826;54.756;9.192;2022-09-28T03:58:30;8.80;99.90
11540;DHT22;5826;54.756;9.192;2022-09-28T04:01:03;8.80;99.90
11540;DHT22;5826;54.756;9.192;2022-09-28T04:03:30;8.80;99.90
11540;DHT22;5826;54.756;9.192;2022-09-28T04:05:55;8.80;99.90
11540;DHT22;5826;54.756;9.192;2022-09-28T04:08:21;8.80;99.90
11540;DHT22;5826;54.756;9.192;2022-09-28T04:10:47;8.70;99.90
11540;DHT22;5826;54.756;9.192;2022-09-28T04:13:12;8.80;99.90
11540;DHT22;5826;54.756;9.192;2022-09-28T04:15:38;8.80;99.90
11540;DHT22;5826;54.756;9.192;2022-09-28T04:18:10;8.80;99.90
11540;DHT22;5826;54.756;9.192;2022-09-28T04:20:36;8.80;99.90
11540;DHT22;5826;54.756;9.192;2022-09-28T04:23:02;8.80;99.90
11540;DHT22;5826;54.756;9.192;2022-09-28T04:25:27;8.80;99.90
11540;DHT22;5826;54.756;9.192;2022-09-28T04:27:53;8.80;99.90
11540;DHT22;5826;54.756;9.192;2022-09-28T04:30:37;8.80;99.90
11540;DHT22;5826;54.756;9.192;2022-09-28T04:33:02;8.80;99.90
11540;DHT22;5826;54.756;9.192;2022-09-28T04:35:28;8.80;99.90
11540;DHT22;5826;54.756;9.192;2022-09-28T04:37:53;8.80;99.90
11540;DHT22;5826;54.756;9.192;2022-09-28T04:40:19;8.80;99.90
11540;DHT22;5826;54.756;9.192;2022-09-28T04:42:52;8.80;99.90
11540;DHT22;5826;54.756;9.192;2022-09-28T04:45:18;8.80;99.90
11540;DHT22;5826;54.756;9.192;2022-09-28T04:47:43;8.80;99.90
11540;DHT22;5826;54.756;9.192;2022-09-28T04:50:09;8.80;99.90
11540;DHT22;5826;54.756;9.192;2022-09-28T04:52:35;8.70;99.90
11540;DHT22;5826;54.756;9.192;2022-09-28T04:55:02;8.70;99.90
11540;DHT22;5826;54.756;9.192;2022-09-28T04:57:27;8.70;99.90
11540;DHT22;5826;54.756;9.192;2022-09-28T04:59:53;8.60;99.90
11540;DHT22;5826;54.756;9.192;2022-09-28T05:02:18;8.60;99.90
11540;DHT22;5826;54.756;9.192;2022-09-28T05:04:44;8.60;99.90
11540;DHT22;5826;54.756;9.192;2022-09-28T05:07:10;8.60;99.90
11540;DHT22;5826;54.756;9.192;2022-09-28T05:09:35;8.60;99.90
11540;DHT22;5826;54.756;9.192;2022-09-28T05:12:01;8.50;99.90
11540;DHT22;5826;54.756;9.192;2022-09-28T05:14:26;8.50;99.90
11540;DHT22;5826;54.756;9.192;2022-09-28T05:16:52;8.50;99.90
11540;DHT22;5826;54.756;9.192;2022-09-28T05:19:17;8.40;99.90
11540;DHT22;5826;54.756;9.192;2022-09-28T05:21:46;8.40;99.90
11540;DHT22;5826;54.756;9.192;2022-09-28T05:24:13;8.40;99.90
11540;DHT22;5826;54.756;9.192;2022-09-28T05:26:38;8.40;99.90
11540;DHT22;5826;54.756;9.192;2022-09-28T05:29:04;8.40;99.90
11540;DHT22;5826;54.756;9.192;2022-09-28T05:31:30;8.40;99.90
11540;DHT22;5826;54.756;9.192;2022-09-28T05:33:56;8.40;99.90
11540;DHT22;5826;54.756;9.192;2022-09-28T05:36:22;8.40;99.90
11540;DHT22;5826;54.756;9.192;2022-09-28T05:38:50;8.40;99.90
11540;DHT22;5826;54.756;9.192;2022-09-28T05:41:16;8.40;99.90
11540;DHT22;5826;54.756;9.192;2022-09-28T05:43:41;8.30;99.90
11540;DHT22;5826;54.756;9.192;2022-09-28T05:46:08;8.30;99.90
11540;DHT22;5826;54.756;9.192;2022-09-28T05:48:33;8.30;99.90
11540;DHT22;5826;54.756;9.192;2022-09-28T05:50:59;8.30;99.90
11540;DHT22;5826;54.756;9.192;2022-09-28T05:53:24;8.30;99.90
11540;DHT22;5826;54.756;9.192;2022-09-28T05:55:50;8.30;99.90
11540;DHT22;5826;54.756;9.192;2022-09-28T05:58:16;8.30;99.90
11540;DHT22;5826;54.756;9.192;2022-09-28T06:00:42;8.40;99.90
11540;DHT22;5826;54.756;9.192;2022-09-28T06:03:10;8.40;99.90
11540;DHT22;5826;54.756;9.192;2022-09-28T06:05:37;8.40;99.90
11540;DHT22;5826;54.756;9.192;2022-09-28T06:08:04;8.40;99.90
11540;DHT22;5826;54.756;9.192;2022-09-28T06:10:30;8.50;99.90
11540;DHT22;5826;54.756;9.192;2022-09-28T06:12:56;8.50;99.90
11540;DHT22;5826;54.756;9.192;2022-09-28T06:15:23;8.50;99.90
11540;DHT22;5826;54.756;9.192;2022-09-28T06:18:00;8.60;99.90
11540;DHT22;5826;54.756;9.192;2022-09-28T06:20:28;8.60;99.90
11540;DHT22;5826;54.756;9.192;2022-09-28T06:22:54;8.60;99.90
11540;DHT22;5826;54.756;9.192;2022-09-28T06:25:20;8.70;99.90
11540;DHT22;5826;54.756;9.192;2022-09-28T06:28:14;8.70;99.90
11540;DHT22;5826;54.756;9.192;2022-09-28T06:30:41;8.70;99.90
11540;DHT22;5826;54.756;9.192;2022-09-28T06:33:10;8.70;99.90
11540;DHT22;5826;54.756;9.192;2022-09-28T06:35:37;8.80;99.90
11540;DHT22;5826;54.756;9.192;2022-09-28T06:38:03;8.80;99.90
11540;DHT22;5826;54.756;9.192;2022-09-28T06:40:29;8.80;99.90
11540;DHT22;5826;54.756;9.192;2022-09-28T06:42:59;8.80;99.90
11540;DHT22;5826;54.756;9.192;2022-09-28T06:45:26;8.90;99.90
11540;DHT22;5826;54.756;9.192;2022-09-28T06:47:59;8.90;99.90
11540;DHT22;5826;54.756;9.192;2022-09-28T06:50:27;9.00;99.90
11540;DHT22;5826;54.756;9.192;2022-09-28T06:52:55;9.00;99.90
11540;DHT22;5826;54.756;9.192;2022-09-28T06:55:21;9.10;99.90
11540;DHT22;5826;54.756;9.192;2022-09-28T06:57:47;9.10;99.90
11540;DHT22;5826;54.756;9.192;2022-09-28T07:00:20;9.20;99.90
11540;DHT22;5826;54.756;9.192;2022-09-28T07:02:45;9.20;99.90
11540;DHT22;5826;54.756;9.192;2022-09-28T07:05:11;9.20;99.90
11540;DHT22;5826;54.756;9.192;2022-09-28T07:07:38;9.30;99.90
11540;DHT22;5826;54.756;9.192;2022-09-28T07:10:05;9.40;99.90
11540;DHT22;5826;54.756;9.192;2022-09-28T07:12:30;9.40;99.90
11540;DHT22;5826;54.756;9.192;2022-09-28T07:14:58;9.40;99.90
11540;DHT22;5826;54.756;9.192;2022-09-28T07:17:24;9.50;99.90
11540;DHT22;5826;54.756;9.192;2022-09-28T07:19:50;9.50;99.90
11540;DHT22;5826;54.756;9.192;2022-09-28T07:22:20;9.50;99.90
11540;DHT22;5826;54.756;9.192;2022-09-28T07:24:46;9.60;99.90
11540;DHT22;5826;54.756;9.192;2022-09-28T07:27:12;9.60;99.90
11540;DHT22;5826;54.756;9.192;2022-09-28T07:29:38;9.60;99.90
11540;DHT22;5826;54.756;9.192;2022-09-28T07:32:03;9.70;99.90
11540;DHT22;5826;54.756;9.192;2022-09-28T07:34:29;9.70;99.90
11540;DHT22;5826;54.756;9.192;2022-09-28T07:36:54;9.70;99.90
11540;DHT22;5826;54.756;9.192;2022-09-28T07:39:23;9.80;99.90
11540;DHT22;5826;54.756;9.192;2022-09-28T07:41:48;9.80;99.90
11540;DHT22;5826;54.756;9.192;2022-09-28T07:44:14;9.80;99.90
11540;DHT22;5826;54.756;9.192;2022-09-28T07:46:40;9.90;99.90
11540;DHT22;5826;54.756;9.192;2022-09-28T07:49:08;10.00;99.90
11540;DHT22;5826;54.756;9.192;2022-09-28T07:51:34;10.10;99.90
11540;DHT22;5826;54.756;9.192;2022-09-28T07:53:59;10.20;99.90
11540;DHT22;5826;54.756;9.192;2022-09-28T07:56:25;10.20;99.90
11540;DHT22;5826;54.756;9.192;2022-09-28T07:58:50;10.30;99.90
11540;DHT22;5826;54.756;9.192;2022-09-28T08:01:16;10.30;99.90
11540;DHT22;5826;54.756;9.192;2022-09-28T08:03:43;10.40;99.90
11540;DHT22;5826;54.756;9.192;2022-09-28T08:06:10;10.40;99.90
11540;DHT22;5826;54.756;9.192;2022-09-28T08:08:40;10.40;99.90
11540;DHT22;5826;54.756;9.192;2022-09-28T08:11:14;10.40;99.90
11540;DHT22;5826;54.756;9.192;2022-09-28T08:13:40;10.40;99.90
11540;DHT22;5826;54.756;9.192;2022-09-28T08:16:06;10.50;99.90
11540;DHT22;5826;54.756;9.192;2022-09-28T08:18:35;10.50;99.90
11540;DHT22;5826;54.756;9.192;2022-09-28T08:21:02;10.70;99.90
11540;DHT22;5826;54.756;9.192;2022-09-28T08:23:46;10.70;99.90
11540;DHT22;5826;54.756;9.192;2022-09-28T08:26:12;10.80;99.90
11540;DHT22;5826;54.756;9.192;2022-09-28T08:28:37;10.90;99.90
11540;DHT22;5826;54.756;9.192;2022-09-28T08:31:03;10.90;99.90
11540;DHT22;5826;54.756;9.192;2022-09-28T08:33:32;11.00;99.90
11540;DHT22;5826;54.756;9.192;2022-09-28T08:35:59;11.10;99.90
11540;DHT22;5826;54.756;9.192;2022-09-28T08:38:26;11.20;99.90
11540;DHT22;5826;54.756;9.192;2022-09-28T08:44:00;11.40;99.90
11540;DHT22;5826;54.756;9.192;2022-09-28T08:46:34;11.40;99.90
11540;DHT22;5826;54.756;9.192;2022-09-28T08:51:51;11.50;99.90
11540;DHT22;5826;54.756;9.192;2022-09-28T08:56:53;11.60;99.90
11540;DHT22;5826;54.756;9.192;2022-09-28T08:59:25;11.60;99.90
11540;DHT22;5826;54.756;9.192;2022-09-28T09:01:58;11.60;99.90
11540;DHT22;5826;54.756;9.192;2022-09-28T09:04:25;11.60;99.90
11540;DHT22;5826;54.756;9.192;2022-09-28T09:07:08;11.60;99.90
11540;DHT22;5826;54.756;9.192;2022-09-28T09:10:40;11.70;99.90
11540;DHT22;5826;54.756;9.192;2022-09-28T09:12:58;11.80;99.90
11540;DHT22;5826;54.756;9.192;2022-09-28T09:15:41;11.80;99.90
11540;DHT22;5826;54.756;9.192;2022-09-28T09:18:36;11.80;99.90
11540;DHT22;5826;54.756;9.192;2022-09-28T09:23:41;11.70;99.90
11540;DHT22;5826;54.756;9.192;2022-09-28T09:26:15;11.60;99.90
11540;DHT22;5826;54.756;9.192;2022-09-28T09:28:59;11.60;99.90
11540;DHT22;5826;54.756;9.192;2022-09-28T09:31:41;11.60;99.90
11540;DHT22;5826;54.756;9.192;2022-09-28T09:34:32;11.60;99.90
11540;DHT22;5826;54.756;9.192;2022-09-28T09:40:03;11.50;99.90
11540;DHT22;5826;54.756;9.192;2022-09-28T09:50:50;11.80;99.90
11540;DHT22;5826;54.756;9.192;2022-09-28T09:54:04;11.90;99.90
11540;DHT22;5826;54.756;9.192;2022-09-28T09:56:21;11.90;99.90
11540;DHT22;5826;54.756;9.192;2022-09-28T09:58:53;12.00;99.90
11540;DHT22;5826;54.756;9.192;2022-09-28T10:01:37;12.00;99.90
11540;DHT22;5826;54.756;9.192;2022-09-28T10:04:11;12.00;99.90
11540;DHT22;5826;54.756;9.192;2022-09-28T10:06:40;11.90;99.90
11540;DHT22;5826;54.756;9.192;2022-09-28T10:09:21;11.90;99.90
11540;DHT22;5826;54.756;9.192;2022-09-28T10:11:47;11.80;99.90
11540;DHT22;5826;54.756;9.192;2022-09-28T10:14:20;11.90;99.90
11540;DHT22;5826;54.756;9.192;2022-09-28T10:16:47;11.90;99.90
11540;DHT22;5826;54.756;9.192;2022-09-28T10:19:14;12.20;99.90
11540;DHT22;5826;54.756;9.192;2022-09-28T10:21:41;12.30;99.90
11540;DHT22;5826;54.756;9.192;2022-09-28T10:24:16;12.30;99.90
11540;DHT22;5826;54.756;9.192;2022-09-28T10:26:47;12.30;99.90
11540;DHT22;5826;54.756;9.192;2022-09-28T10:29:25;12.40;99.90
11540;DHT22;5826;54.756;9.192;2022-09-28T10:31:52;12.40;99.90
11540;DHT22;5826;54.756;9.192;2022-09-28T10:34:26;12.50;99.90
11540;DHT22;5826;54.756;9.192;2022-09-28T10:36:57;12.60;99.90
11540;DHT22;5826;54.756;9.192;2022-09-28T10:39:28;12.80;99.90
11540;DHT22;5826;54.756;9.192;2022-09-28T10:41:55;12.90;99.90
11540;DHT22;5826;54.756;9.192;2022-09-28T10:44:23;12.90;99.90
11540;DHT22;5826;54.756;9.192;2022-09-28T10:46:56;12.90;99.90
11540;DHT22;5826;54.756;9.192;2022-09-28T10:49:24;12.90;99.90
11540;DHT22;5826;54.756;9.192;2022-09-28T10:51:53;13.00;99.90
11540;DHT22;5826;54.756;9.192;2022-09-28T10:54:25;13.10;99.90
11540;DHT22;5826;54.756;9.192;2022-09-28T10:56:53;13.30;99.90
11540;DHT22;5826;54.756;9.192;2022-09-28T11:01:58;13.40;99.90
11540;DHT22;5826;54.756;9.192;2022-09-28T11:04:27;13.50;99.90
11540;DHT22;5826;54.756;9.192;2022-09-28T11:06:54;13.60;99.90
11540;DHT22;5826;54.756;9.192;2022-09-28T11:11:48;14.00;99.90
11540;DHT22;5826;54.756;9.192;2022-09-28T11:14:35;14.20;99.90
11540;DHT22;5826;54.756;9.192;2022-09-28T11:19:49;14.60;99.90
11540;DHT22;5826;54.756;9.192;2022-09-28T11:22:36;14.70;99.90
11540;DHT22;5826;54.756;9.192;2022-09-28T11:25:21;14.90;99.90
11540;DHT22;5826;54.756;9.192;2022-09-28T11:32:52;15.30;99.90
11540;DHT22;5826;54.756;9.192;2022-09-28T11:35:31;15.50;99.90
11540;DHT22;5826;54.756;9.192;2022-09-28T11:38:38;15.60;99.90
11540;DHT22;5826;54.756;9.192;2022-09-28T11:44:16;15.80;99.90
11540;DHT22;5826;54.756;9.192;2022-09-28T11:58:13;15.80;99.90
11540;DHT22;5826;54.756;9.192;2022-09-28T12:00:44;15.80;99.90
11540;DHT22;5826;54.756;9.192;2022-09-28T12:03:18;15.90;99.90
11540;DHT22;5826;54.756;9.192;2022-09-28T12:06:00;16.10;99.90
11540;DHT22;5826;54.756;9.192;2022-09-28T12:08:34;16.20;99.90
11540;DHT22;5826;54.756;9.192;2022-09-28T12:11:06;16.20;99.90
11540;DHT22;5826;54.756;9.192;2022-09-28T12:13:41;16.40;99.90
11540;DHT22;5826;54.756;9.192;2022-09-28T12:16:20;16.40;99.90
11540;DHT22;5826;54.756;9.192;2022-09-28T12:21:30;16.60;99.90
11540;DHT22;5826;54.756;9.192;2022-09-28T12:26:56;16.70;99.90
11540;DHT22;5826;54.756;9.192;2022-09-28T12:29:36;16.80;99.90
11540;DHT22;5826;54.756;9.192;2022-09-28T12:32:20;17.00;99.90
11540;DHT22;5826;54.756;9.192;2022-09-28T12:34:49;17.00;99.90
11540;DHT22;5826;54.756;9.192;2022-09-28T12:43:10;17.60;99.90
11540;DHT22;5826;54.756;9.192;2022-09-28T12:46:34;18.10;99.90
11540;DHT22;5826;54.756;9.192;2022-09-28T12:51:53;19.20;99.90
11540;DHT22;5826;54.756;9.192;2022-09-28T12:54:41;19.40;99.90
11540;DHT22;5826;54.756;9.192;2022-09-28T13:00:05;19.60;99.90
11540;DHT22;5826;54.756;9.192;2022-09-28T13:03:20;19.80;99.90
11540;DHT22;5826;54.756;9.192;2022-09-28T13:06:06;20.10;99.90
11540;DHT22;5826;54.756;9.192;2022-09-28T13:09:21;20.00;99.90
11540;DHT22;5826;54.756;9.192;2022-09-28T13:12:10;19.70;99.90
11540;DHT22;5826;54.756;9.192;2022-09-28T13:14:51;19.40;99.90
11540;DHT22;5826;54.756;9.192;2022-09-28T13:17:48;19.70;99.90
11540;DHT22;5826;54.756;9.192;2022-09-28T13:23:21;21.70;99.60
11540;DHT22;5826;54.756;9.192;2022-09-28T13:26:11;22.90;99.90
11540;DHT22;5826;54.756;9.192;2022-09-28T13:28:39;23.90;96.90
11540;DHT22;5826;54.756;9.192;2022-09-28T13:31:06;24.70;97.20
11540;DHT22;5826;54.756;9.192;2022-09-28T13:33:36;24.90;97.60
11540;DHT22;5826;54.756;9.192;2022-09-28T13:38:48;24.10;97.90
11540;DHT22;5826;54.756;9.192;2022-09-28T13:41:16;23.60;98.30
11540;DHT22;5826;54.756;9.192;2022-09-28T13:50:29;23.00;99.90
11540;DHT22;5826;54.756;9.192;2022-09-28T13:58:11;24.10;96.60
11540;DHT22;5826;54.756;9.192;2022-09-28T14:06:31;26.50;94.20
11540;DHT22;5826;54.756;9.192;2022-09-28T14:12:00;28.60;93.40
11540;DHT22;5826;54.756;9.192;2022-09-28T14:14:45;28.50;91.30
11540;DHT22;5826;54.756;9.192;2022-09-28T14:19:45;24.60;95.80
11540;DHT22;5826;54.756;9.192;2022-09-28T14:25:23;21.20;98.00
11540;DHT22;5826;54.756;9.192;2022-09-28T14:28:06;19.80;99.50
11540;DHT22;5826;54.756;9.192;2022-09-28T14:33:29;17.80;99.90
11540;DHT22;5826;54.756;9.192;2022-09-28T14:35:57;17.00;99.90
11540;DHT22;5826;54.756;9.192;2022-09-28T14:38:43;16.30;99.90
11540;DHT22;5826;54.756;9.192;2022-09-28T14:41:39;15.80;99.90
11540;DHT22;5826;54.756;9.192;2022-09-28T14:44:11;15.40;99.90
11540;DHT22;5826;54.756;9.192;2022-09-28T14:52:01;14.60;99.90
11540;DHT22;5826;54.756;9.192;2022-09-28T14:54:36;14.30;99.90
11540;DHT22;5826;54.756;9.192;2022-09-28T14:59:30;13.90;99.90
11540;DHT22;5826;54.756;9.192;2022-09-28T15:04:48;13.70;99.90
11540;DHT22;5826;54.756;9.192;2022-09-28T15:07:29;13.60;99.90
11540;DHT22;5826;54.756;9.192;2022-09-28T15:10:35;13.50;99.90
11540;DHT22;5826;54.756;9.192;2022-09-28T15:15:48;13.40;99.90
11540;DHT22;5826;54.756;9.192;2022-09-28T15:21:10;13.40;99.90
11540;DHT22;5826;54.756;9.192;2022-09-28T15:23:41;13.30;99.90
11540;DHT22;5826;54.756;9.192;2022-09-28T15:26:23;13.30;99.90
11540;DHT22;5826;54.756;9.192;2022-09-28T15:28:52;13.30;99.90
11540;DHT22;5826;54.756;9.192;2022-09-28T15:31:20;13.30;99.90
11540;DHT22;5826;54.756;9.192;2022-09-28T15:33:46;13.30;99.90
11540;DHT22;5826;54.756;9.192;2022-09-28T15:36:42;13.40;99.90
11540;DHT22;5826;54.756;9.192;2022-09-28T15:41:36;13.50;99.90
11540;DHT22;5826;54.756;9.192;2022-09-28T15:44:06;13.40;99.90
11540;DHT22;5826;54.756;9.192;2022-09-28T15:46:33;13.60;99.90
11540;DHT22;5826;54.756;9.192;2022-09-28T15:48:59;14.00;99.90
11540;DHT22;5826;54.756;9.192;2022-09-28T15:51:27;14.70;99.90
11540;DHT22;5826;54.756;9.192;2022-09-28T15:54:00;15.50;99.90
11540;DHT22;5826;54.756;9.192;2022-09-28T15:56:27;15.80;99.90
11540;DHT22;5826;54.756;9.192;2022-09-28T15:59:21;15.90;99.90
11540;DHT22;5826;54.756;9.192;2022-09-28T16:02:01;15.80;99.90
11540;DHT22;5826;54.756;9.192;2022-09-28T16:04:52;15.70;99.90
11540;DHT22;5826;54.756;9.192;2022-09-28T16:07:38;15.50;99.90
11540;DHT22;5826;54.756;9.192;2022-09-28T16:15:27;15.20;99.90
11540;DHT22;5826;54.756;9.192;2022-09-28T16:17:58;15.10;99.90
11540;DHT22;5826;54.756;9.192;2022-09-28T16:20:27;15.00;99.90
11540;DHT22;5826;54.756;9.192;2022-09-28T16:22:59;14.90;99.90
11540;DHT22;5826;54.756;9.192;2022-09-28T16:25:32;14.80;99.90
11540;DHT22;5826;54.756;9.192;2022-09-28T16:28:00;14.70;99.90
11540;DHT22;5826;54.756;9.192;2022-09-28T16:30:30;14.60;99.90
11540;DHT22;5826;54.756;9.192;2022-09-28T16:33:04;14.50;99.90
11540;DHT22;5826;54.756;9.192;2022-09-28T16:37:58;14.30;99.90
11540;DHT22;5826;54.756;9.192;2022-09-28T16:40:24;14.20;99.90
11540;DHT22;5826;54.756;9.192;2022-09-28T16:42:52;14.10;99.90
11540;DHT22;5826;54.756;9.192;2022-09-28T16:45:20;14.00;99.90
11540;DHT22;5826;54.756;9.192;2022-09-28T16:47:47;13.90;99.90
11540;DHT22;5826;54.756;9.192;2022-09-28T16:50:16;13.80;99.90
11540;DHT22;5826;54.756;9.192;2022-09-28T16:52:42;13.70;99.90
11540;DHT22;5826;54.756;9.192;2022-09-28T16:55:27;13.60;99.90
11540;DHT22;5826;54.756;9.192;2022-09-28T16:57:53;13.50;99.90
11540;DHT22;5826;54.756;9.192;2022-09-28T17:00:21;13.40;99.90
11540;DHT22;5826;54.756;9.192;2022-09-28T17:02:50;13.30;99.90
11540;DHT22;5826;54.756;9.192;2022-09-28T17:05:17;13.20;99.90
11540;DHT22;5826;54.756;9.192;2022-09-28T17:07:47;13.10;99.90
11540;DHT22;5826;54.756;9.192;2022-09-28T17:12:41;13.00;99.90
11540;DHT22;5826;54.756;9.192;2022-09-28T17:15:07;12.90;99.90
11540;DHT22;5826;54.756;9.192;2022-09-28T17:17:32;12.90;99.90
11540;DHT22;5826;54.756;9.192;2022-09-28T17:19:58;12.80;99.90
11540;DHT22;5826;54.756;9.192;2022-09-28T17:22:23;12.70;99.90
11540;DHT22;5826;54.756;9.192;2022-09-28T17:24:49;12.60;99.90
11540;DHT22;5826;54.756;9.192;2022-09-28T17:27:17;12.50;99.90
11540;DHT22;5826;54.756;9.192;2022-09-28T17:29:43;12.40;99.90
11540;DHT22;5826;54.756;9.192;2022-09-28T17:32:17;12.30;99.90
11540;DHT22;5826;54.756;9.192;2022-09-28T17:34:43;12.20;99.90
11540;DHT22;5826;54.756;9.192;2022-09-28T17:37:12;12.10;99.90
11540;DHT22;5826;54.756;9.192;2022-09-28T17:39:38;12.10;99.90
11540;DHT22;5826;54.756;9.192;2022-09-28T17:42:04;12.00;99.90
11540;DHT22;5826;54.756;9.192;2022-09-28T17:44:29;11.90;99.90
11540;DHT22;5826;54.756;9.192;2022-09-28T17:46:55;11.90;99.90
11540;DHT22;5826;54.756;9.192;2022-09-28T17:49:21;11.80;99.90
11540;DHT22;5826;54.756;9.192;2022-09-28T17:51:46;11.80;99.90
11540;DHT22;5826;54.756;9.192;2022-09-28T17:54:12;11.70;99.90
11540;DHT22;5826;54.756;9.192;2022-09-28T17:56:40;11.60;99.90
11540;DHT22;5826;54.756;9.192;2022-09-28T17:59:10;11.60;99.90
11540;DHT22;5826;54.756;9.192;2022-09-28T18:01:37;11.60;99.90
11540;DHT22;5826;54.756;9.192;2022-09-28T18:04:05;11.50;99.90
11540;DHT22;5826;54.756;9.192;2022-09-28T18:06:31;11.50;99.90
11540;DHT22;5826;54.756;9.192;2022-09-28T18:08:58;11.40;99.90
11540;DHT22;5826;54.756;9.192;2022-09-28T18:11:24;11.40;99.90
11540;DHT22;5826;54.756;9.192;2022-09-28T18:13:49;11.40;99.90
11540;DHT22;5826;54.756;9.192;2022-09-28T18:16:15;11.30;99.90
11540;DHT22;5826;54.756;9.192;2022-09-28T18:18:41;11.30;99.90
11540;DHT22;5826;54.756;9.192;2022-09-28T18:21:07;11.30;99.90
11540;DHT22;5826;54.756;9.192;2022-09-28T18:23:37;11.20;99.90
11540;DHT22;5826;54.756;9.192;2022-09-28T18:26:04;11.20;99.90
11540;DHT22;5826;54.756;9.192;2022-09-28T18:28:34;11.20;99.90
11540;DHT22;5826;54.756;9.192;2022-09-28T18:31:08;11.10;99.90
11540;DHT22;5826;54.756;9.192;2022-09-28T18:33:34;11.10;99.90
11540;DHT22;5826;54.756;9.192;2022-09-28T18:36:01;11.10;99.90
11540;DHT22;5826;54.756;9.192;2022-09-28T18:38:26;11.00;99.90
11540;DHT22;5826;54.756;9.192;2022-09-28T18:40:52;11.00;99.90
11540;DHT22;5826;54.756;9.192;2022-09-28T18:43:19;11.00;99.90
11540;DHT22;5826;54.756;9.192;2022-09-28T18:45:44;11.00;99.90
11540;DHT22;5826;54.756;9.192;2022-09-28T18:48:10;11.00;99.90
11540;DHT22;5826;54.756;9.192;2022-09-28T18:50:35;10.90;99.90